CZ-0142 weather

Public forecast

Using degrees Celsius for public forecast. Weather courtesy of forecast.io.

Closest aviation weather report (METAR) to Zbilidy UL

Closest report is Čáslav Air Base, 29.6 nm (54.8 km) N. Retrieved 2020/08/15 10:00 UTC (13 minutes ago):

LKCV 151000Z 05004KT 9999 FEW009 BKN015 BKN020 22/18 Q1015 NOSIG

Closest aviation forecast (TAF) to Zbilidy UL

Closest forecast is Čáslav Air Base, 29.6 nm (54.8 km) N. Retrieved 2020/08/15 06:00 UTC (4 hours ago):

TAF COR LKCV 150500Z 1506/1606 VRB02KT 3000 BR BKN008 OVC015 TEMPO 1506/1507 0500 FG VV002 BECMG 1508/1510 9999 NSW BKN035 TEMPO 1510/1518 07015G25KT 4000 TSRA BKN030CB BECMG 1522/1600 4000 MIFG BR PROB40 1600/1606 0500 FG VV002